sensor_id;sensor_type;location;lat;lon;timestamp;P1;durP1;ratioP1;P2;durP2;ratioP2
9240;SDS011;53485;49.326;9.738;2022-12-18T00:00:44;125.93;;;43.67;;
9240;SDS011;53485;49.326;9.738;2022-12-18T00:03:11;71.20;;;32.22;;
9240;SDS011;53485;49.326;9.738;2022-12-18T00:05:45;120.43;;;43.20;;
9240;SDS011;53485;49.326;9.738;2022-12-18T00:08:05;98.32;;;38.47;;
9240;SDS011;53485;49.326;9.738;2022-12-18T00:10:33;93.53;;;37.85;;
9240;SDS011;53485;49.326;9.738;2022-12-18T00:13:00;93.43;;;38.83;;
9240;SDS011;53485;49.326;9.738;2022-12-18T00:15:28;137.37;;;47.30;;
9240;SDS011;53485;49.326;9.738;2022-12-18T00:17:55;117.23;;;45.40;;
9240;SDS011;53485;49.326;9.738;2022-12-18T00:20:22;89.33;;;37.50;;
9240;SDS011;53485;49.326;9.738;2022-12-18T00:22:50;302.87;;;107.27;;
9240;SDS011;53485;49.326;9.738;2022-12-18T00:25:17;368.07;;;127.23;;
9240;SDS011;53485;49.326;9.738;2022-12-18T00:27:44;182.97;;;73.87;;
9240;SDS011;53485;49.326;9.738;2022-12-18T00:30:11;99.90;;;44.33;;
9240;SDS011;53485;49.326;9.738;2022-12-18T00:32:38;82.97;;;38.13;;
9240;SDS011;53485;49.326;9.738;2022-12-18T00:35:05;84.23;;;38.43;;
9240;SDS011;53485;49.326;9.738;2022-12-18T00:37:33;76.97;;;36.70;;
9240;SDS011;53485;49.326;9.738;2022-12-18T00:40:00;78.97;;;39.03;;
9240;SDS011;53485;49.326;9.738;2022-12-18T00:42:26;77.70;;;34.97;;
9240;SDS011;53485;49.326;9.738;2022-12-18T00:44:59;81.90;;;36.87;;
9240;SDS011;53485;49.326;9.738;2022-12-18T00:47:27;78.40;;;34.83;;
9240;SDS011;53485;49.326;9.738;2022-12-18T00:49:54;82.27;;;35.63;;
9240;SDS011;53485;49.326;9.738;2022-12-18T00:52:22;76.53;;;35.37;;
9240;SDS011;53485;49.326;9.738;2022-12-18T00:54:49;75.10;;;33.97;;
9240;SDS011;53485;49.326;9.738;2022-12-18T00:57:16;75.70;;;33.60;;
9240;SDS011;53485;49.326;9.738;2022-12-18T00:59:44;73.33;;;35.17;;
9240;SDS011;53485;49.326;9.738;2022-12-18T01:02:11;70.80;;;33.50;;
9240;SDS011;53485;49.326;9.738;2022-12-18T01:04:39;86.50;;;38.50;;
9240;SDS011;53485;49.326;9.738;2022-12-18T01:07:06;68.00;;;33.27;;
9240;SDS011;53485;49.326;9.738;2022-12-18T01:09:33;81.53;;;35.53;;
9240;SDS011;53485;49.326;9.738;2022-12-18T01:12:01;78.50;;;35.50;;
9240;SDS011;53485;49.326;9.738;2022-12-18T01:14:28;72.93;;;35.17;;
9240;SDS011;53485;49.326;9.738;2022-12-18T01:16:56;69.57;;;31.17;;
9240;SDS011;53485;49.326;9.738;2022-12-18T01:19:23;66.90;;;31.80;;
9240;SDS011;53485;49.326;9.738;2022-12-18T01:21:50;82.87;;;35.63;;
9240;SDS011;53485;49.326;9.738;2022-12-18T01:24:18;77.70;;;36.70;;
9240;SDS011;53485;49.326;9.738;2022-12-18T01:26:45;79.23;;;37.17;;
9240;SDS011;53485;49.326;9.738;2022-12-18T01:29:12;77.87;;;36.90;;
9240;SDS011;53485;49.326;9.738;2022-12-18T01:31:40;76.60;;;35.30;;
9240;SDS011;53485;49.326;9.738;2022-12-18T01:34:08;76.97;;;35.97;;
9240;SDS011;53485;49.326;9.738;2022-12-18T01:36:35;77.67;;;34.57;;
9240;SDS011;53485;49.326;9.738;2022-12-18T01:39:05;83.43;;;36.03;;
9240;SDS011;53485;49.326;9.738;2022-12-18T01:41:28;76.90;;;35.43;;
9240;SDS011;53485;49.326;9.738;2022-12-18T01:43:57;78.60;;;34.33;;
9240;SDS011;53485;49.326;9.738;2022-12-18T01:46:24;75.17;;;35.97;;
9240;SDS011;53485;49.326;9.738;2022-12-18T01:48:52;78.13;;;34.23;;
9240;SDS011;53485;49.326;9.738;2022-12-18T01:51:21;88.17;;;35.90;;
9240;SDS011;53485;49.326;9.738;2022-12-18T01:53:48;79.77;;;37.87;;
9240;SDS011;53485;49.326;9.738;2022-12-18T01:56:16;86.80;;;39.77;;
9240;SDS011;53485;49.326;9.738;2022-12-18T01:58:46;81.47;;;35.70;;
9240;SDS011;53485;49.326;9.738;2022-12-18T02:01:17;92.93;;;39.03;;
9240;SDS011;53485;49.326;9.738;2022-12-18T02:03:44;93.03;;;37.33;;
9240;SDS011;53485;49.326;9.738;2022-12-18T02:06:14;84.60;;;37.47;;
9240;SDS011;53485;49.326;9.738;2022-12-18T02:11:34;81.33;;;33.77;;
9240;SDS011;53485;49.326;9.738;2022-12-18T02:14:07;92.97;;;37.43;;
9240;SDS011;53485;49.326;9.738;2022-12-18T02:16:34;93.03;;;34.73;;
9240;SDS011;53485;49.326;9.738;2022-12-18T02:18:58;80.07;;;35.67;;
9240;SDS011;53485;49.326;9.738;2022-12-18T02:21:28;84.77;;;34.90;;
9240;SDS011;53485;49.326;9.738;2022-12-18T02:26:57;80.07;;;33.80;;
9240;SDS011;53485;49.326;9.738;2022-12-18T02:29:24;91.27;;;35.90;;
9240;SDS011;53485;49.326;9.738;2022-12-18T02:31:51;85.30;;;34.77;;
9240;SDS011;53485;49.326;9.738;2022-12-18T02:34:18;93.60;;;35.80;;
9240;SDS011;53485;49.326;9.738;2022-12-18T02:36:45;83.40;;;33.90;;
9240;SDS011;53485;49.326;9.738;2022-12-18T02:39:12;85.07;;;35.90;;
9240;SDS011;53485;49.326;9.738;2022-12-18T02:41:39;88.50;;;34.63;;
9240;SDS011;53485;49.326;9.738;2022-12-18T02:44:07;89.20;;;35.03;;
9240;SDS011;53485;49.326;9.738;2022-12-18T02:46:35;88.37;;;34.87;;
9240;SDS011;53485;49.326;9.738;2022-12-18T02:49:05;91.50;;;35.83;;
9240;SDS011;53485;49.326;9.738;2022-12-18T02:51:30;83.53;;;33.40;;
9240;SDS011;53485;49.326;9.738;2022-12-18T02:53:58;109.17;;;39.73;;
9240;SDS011;53485;49.326;9.738;2022-12-18T02:56:26;157.37;;;53.85;;
9240;SDS011;53485;49.326;9.738;2022-12-18T03:01:43;82.13;;;34.97;;
9240;SDS011;53485;49.326;9.738;2022-12-18T03:04:25;83.97;;;32.63;;
9240;SDS011;53485;49.326;9.738;2022-12-18T03:06:51;85.07;;;31.97;;
9240;SDS011;53485;49.326;9.738;2022-12-18T03:09:18;76.17;;;31.63;;
9240;SDS011;53485;49.326;9.738;2022-12-18T03:11:45;80.38;;;31.52;;
9240;SDS011;53485;49.326;9.738;2022-12-18T03:14:16;76.72;;;29.23;;
9240;SDS011;53485;49.326;9.738;2022-12-18T03:16:43;70.53;;;28.67;;
9240;SDS011;53485;49.326;9.738;2022-12-18T03:19:12;63.63;;;29.23;;
9240;SDS011;53485;49.326;9.738;2022-12-18T03:21:40;80.00;;;31.35;;
9240;SDS011;53485;49.326;9.738;2022-12-18T03:24:07;84.93;;;32.37;;
9240;SDS011;53485;49.326;9.738;2022-12-18T03:26:33;78.55;;;32.13;;
9240;SDS011;53485;49.326;9.738;2022-12-18T03:29:03;82.40;;;31.50;;
9240;SDS011;53485;49.326;9.738;2022-12-18T03:31:29;73.50;;;32.05;;
9240;SDS011;53485;49.326;9.738;2022-12-18T03:33:57;82.68;;;34.40;;
9240;SDS011;53485;49.326;9.738;2022-12-18T03:36:23;77.35;;;31.75;;
9240;SDS011;53485;49.326;9.738;2022-12-18T03:38:50;75.07;;;30.67;;
9240;SDS011;53485;49.326;9.738;2022-12-18T03:41:19;75.25;;;29.60;;
9240;SDS011;53485;49.326;9.738;2022-12-18T03:44:01;77.90;;;29.92;;
9240;SDS011;53485;49.326;9.738;2022-12-18T03:46:36;77.55;;;29.58;;
9240;SDS011;53485;49.326;9.738;2022-12-18T03:49:08;70.10;;;28.30;;
9240;SDS011;53485;49.326;9.738;2022-12-18T03:51:36;75.45;;;30.80;;
9240;SDS011;53485;49.326;9.738;2022-12-18T03:54:14;73.32;;;28.17;;
9240;SDS011;53485;49.326;9.738;2022-12-18T03:56:42;77.68;;;29.35;;
9240;SDS011;53485;49.326;9.738;2022-12-18T03:59:09;83.25;;;30.77;;
9240;SDS011;53485;49.326;9.738;2022-12-18T04:01:37;76.87;;;29.67;;
9240;SDS011;53485;49.326;9.738;2022-12-18T04:04:03;70.68;;;27.65;;
9240;SDS011;53485;49.326;9.738;2022-12-18T04:06:31;80.82;;;28.62;;
9240;SDS011;53485;49.326;9.738;2022-12-18T04:08:58;77.18;;;29.33;;
9240;SDS011;53485;49.326;9.738;2022-12-18T04:11:25;74.75;;;28.83;;
9240;SDS011;53485;49.326;9.738;2022-12-18T04:13:55;68.15;;;28.83;;
9240;SDS011;53485;49.326;9.738;2022-12-18T04:16:21;77.10;;;29.00;;
9240;SDS011;53485;49.326;9.738;2022-12-18T04:18:49;81.60;;;30.73;;
9240;SDS011;53485;49.326;9.738;2022-12-18T04:21:16;73.72;;;29.23;;
9240;SDS011;53485;49.326;9.738;2022-12-18T04:23:44;73.47;;;29.00;;
9240;SDS011;53485;49.326;9.738;2022-12-18T04:26:12;76.22;;;29.63;;
9240;SDS011;53485;49.326;9.738;2022-12-18T04:28:39;79.35;;;28.55;;
9240;SDS011;53485;49.326;9.738;2022-12-18T04:31:07;70.60;;;28.80;;
9240;SDS011;53485;49.326;9.738;2022-12-18T04:33:34;70.07;;;27.25;;
9240;SDS011;53485;49.326;9.738;2022-12-18T04:36:02;75.22;;;28.33;;
9240;SDS011;53485;49.326;9.738;2022-12-18T04:38:29;74.65;;;28.15;;
9240;SDS011;53485;49.326;9.738;2022-12-18T04:40:57;77.97;;;27.60;;
9240;SDS011;53485;49.326;9.738;2022-12-18T04:43:24;67.68;;;25.95;;
9240;SDS011;53485;49.326;9.738;2022-12-18T04:45:52;64.43;;;24.77;;
9240;SDS011;53485;49.326;9.738;2022-12-18T04:48:20;62.47;;;25.58;;
9240;SDS011;53485;49.326;9.738;2022-12-18T04:50:47;75.30;;;28.00;;
9240;SDS011;53485;49.326;9.738;2022-12-18T04:53:15;66.45;;;28.65;;
9240;SDS011;53485;49.326;9.738;2022-12-18T04:55:42;61.45;;;25.62;;
9240;SDS011;53485;49.326;9.738;2022-12-18T04:58:10;72.40;;;27.52;;
9240;SDS011;53485;49.326;9.738;2022-12-18T05:00:38;69.82;;;27.45;;
9240;SDS011;53485;49.326;9.738;2022-12-18T05:03:06;70.95;;;27.80;;
9240;SDS011;53485;49.326;9.738;2022-12-18T05:05:35;65.75;;;25.90;;
9240;SDS011;53485;49.326;9.738;2022-12-18T05:08:01;65.35;;;26.92;;
9240;SDS011;53485;49.326;9.738;2022-12-18T05:10:29;65.00;;;27.10;;
9240;SDS011;53485;49.326;9.738;2022-12-18T05:12:57;69.65;;;27.15;;
9240;SDS011;53485;49.326;9.738;2022-12-18T05:15:28;72.10;;;27.67;;
9240;SDS011;53485;49.326;9.738;2022-12-18T05:17:55;82.90;;;30.73;;
9240;SDS011;53485;49.326;9.738;2022-12-18T05:20:22;81.35;;;30.65;;
9240;SDS011;53485;49.326;9.738;2022-12-18T05:22:50;84.45;;;29.63;;
9240;SDS011;53485;49.326;9.738;2022-12-18T05:25:16;101.93;;;37.83;;
9240;SDS011;53485;49.326;9.738;2022-12-18T05:27:43;213.75;;;61.47;;
9240;SDS011;53485;49.326;9.738;2022-12-18T05:30:11;127.22;;;38.20;;
9240;SDS011;53485;49.326;9.738;2022-12-18T05:32:39;89.05;;;31.17;;
9240;SDS011;53485;49.326;9.738;2022-12-18T05:35:06;90.55;;;33.03;;
9240;SDS011;53485;49.326;9.738;2022-12-18T05:37:33;71.25;;;27.42;;
9240;SDS011;53485;49.326;9.738;2022-12-18T05:40:00;72.97;;;27.33;;
9240;SDS011;53485;49.326;9.738;2022-12-18T05:42:27;70.37;;;26.77;;
9240;SDS011;53485;49.326;9.738;2022-12-18T05:44:55;78.10;;;28.00;;
9240;SDS011;53485;49.326;9.738;2022-12-18T05:47:22;64.75;;;25.62;;
9240;SDS011;53485;49.326;9.738;2022-12-18T05:49:50;67.15;;;26.85;;
9240;SDS011;53485;49.326;9.738;2022-12-18T05:52:18;67.90;;;26.85;;
9240;SDS011;53485;49.326;9.738;2022-12-18T05:54:46;59.78;;;26.02;;
9240;SDS011;53485;49.326;9.738;2022-12-18T05:57:13;64.18;;;25.58;;
9240;SDS011;53485;49.326;9.738;2022-12-18T05:59:41;67.72;;;25.88;;
9240;SDS011;53485;49.326;9.738;2022-12-18T06:02:08;67.28;;;25.67;;
9240;SDS011;53485;49.326;9.738;2022-12-18T06:04:36;69.32;;;25.77;;
9240;SDS011;53485;49.326;9.738;2022-12-18T06:07:04;76.85;;;27.30;;
9240;SDS011;53485;49.326;9.738;2022-12-18T06:09:31;63.13;;;24.12;;
9240;SDS011;53485;49.326;9.738;2022-12-18T06:11:59;66.90;;;25.05;;
9240;SDS011;53485;49.326;9.738;2022-12-18T06:14:27;72.72;;;27.33;;
9240;SDS011;53485;49.326;9.738;2022-12-18T06:16:55;64.62;;;23.77;;
9240;SDS011;53485;49.326;9.738;2022-12-18T06:19:22;67.50;;;25.65;;
9240;SDS011;53485;49.326;9.738;2022-12-18T06:21:50;65.10;;;26.10;;
9240;SDS011;53485;49.326;9.738;2022-12-18T06:24:18;70.30;;;27.87;;
9240;SDS011;53485;49.326;9.738;2022-12-18T06:26:46;70.25;;;28.45;;
9240;SDS011;53485;49.326;9.738;2022-12-18T06:29:13;63.25;;;26.52;;
9240;SDS011;53485;49.326;9.738;2022-12-18T06:31:41;73.53;;;27.58;;
9240;SDS011;53485;49.326;9.738;2022-12-18T06:34:09;68.40;;;26.55;;
9240;SDS011;53485;49.326;9.738;2022-12-18T06:36:36;68.82;;;26.17;;
9240;SDS011;53485;49.326;9.738;2022-12-18T06:39:04;66.32;;;25.00;;
9240;SDS011;53485;49.326;9.738;2022-12-18T06:41:32;59.67;;;23.60;;
9240;SDS011;53485;49.326;9.738;2022-12-18T06:43:59;67.20;;;25.45;;
9240;SDS011;53485;49.326;9.738;2022-12-18T06:46:27;69.85;;;25.65;;
9240;SDS011;53485;49.326;9.738;2022-12-18T06:48:55;74.15;;;25.95;;
9240;SDS011;53485;49.326;9.738;2022-12-18T06:51:23;71.32;;;25.05;;
9240;SDS011;53485;49.326;9.738;2022-12-18T06:53:49;69.53;;;25.25;;
9240;SDS011;53485;49.326;9.738;2022-12-18T06:56:17;67.53;;;25.85;;
9240;SDS011;53485;49.326;9.738;2022-12-18T06:58:45;72.90;;;27.35;;
9240;SDS011;53485;49.326;9.738;2022-12-18T07:01:12;77.93;;;29.52;;
9240;SDS011;53485;49.326;9.738;2022-12-18T07:03:39;77.43;;;30.52;;
9240;SDS011;53485;49.326;9.738;2022-12-18T07:06:06;78.07;;;32.75;;
9240;SDS011;53485;49.326;9.738;2022-12-18T07:08:33;77.80;;;37.30;;
9240;SDS011;53485;49.326;9.738;2022-12-18T07:11:02;72.07;;;27.05;;
9240;SDS011;53485;49.326;9.738;2022-12-18T07:13:28;69.20;;;27.08;;
9240;SDS011;53485;49.326;9.738;2022-12-18T07:16:02;72.60;;;26.17;;
9240;SDS011;53485;49.326;9.738;2022-12-18T07:18:23;69.07;;;25.58;;
9240;SDS011;53485;49.326;9.738;2022-12-18T07:20:50;68.60;;;26.77;;
9240;SDS011;53485;49.326;9.738;2022-12-18T07:23:18;70.07;;;26.27;;
9240;SDS011;53485;49.326;9.738;2022-12-18T07:25:46;71.75;;;24.98;;
9240;SDS011;53485;49.326;9.738;2022-12-18T07:28:13;62.58;;;24.35;;
9240;SDS011;53485;49.326;9.738;2022-12-18T07:30:41;64.60;;;24.75;;
9240;SDS011;53485;49.326;9.738;2022-12-18T07:33:09;62.65;;;24.02;;
9240;SDS011;53485;49.326;9.738;2022-12-18T07:35:36;68.47;;;24.80;;
9240;SDS011;53485;49.326;9.738;2022-12-18T07:38:04;61.45;;;23.77;;
9240;SDS011;53485;49.326;9.738;2022-12-18T07:40:31;54.08;;;23.10;;
9240;SDS011;53485;49.326;9.738;2022-12-18T07:42:59;70.43;;;24.23;;
9240;SDS011;53485;49.326;9.738;2022-12-18T07:45:27;69.15;;;25.67;;
9240;SDS011;53485;49.326;9.738;2022-12-18T07:47:55;67.45;;;24.52;;
9240;SDS011;53485;49.326;9.738;2022-12-18T07:50:22;67.00;;;25.08;;
9240;SDS011;53485;49.326;9.738;2022-12-18T07:52:50;65.05;;;24.33;;
9240;SDS011;53485;49.326;9.738;2022-12-18T07:55:18;67.18;;;25.23;;
9240;SDS011;53485;49.326;9.738;2022-12-18T07:57:45;69.63;;;24.70;;
9240;SDS011;53485;49.326;9.738;2022-12-18T08:00:13;70.40;;;25.00;;
9240;SDS011;53485;49.326;9.738;2022-12-18T08:02:41;93.90;;;32.93;;
9240;SDS011;53485;49.326;9.738;2022-12-18T08:05:08;89.07;;;36.90;;
9240;SDS011;53485;49.326;9.738;2022-12-18T08:07:35;73.77;;;26.77;;
9240;SDS011;53485;49.326;9.738;2022-12-18T08:10:03;67.37;;;21.67;;
9240;SDS011;53485;49.326;9.738;2022-12-18T08:12:30;74.80;;;24.40;;
9240;SDS011;53485;49.326;9.738;2022-12-18T08:14:58;68.93;;;22.47;;
9240;SDS011;53485;49.326;9.738;2022-12-18T08:17:25;63.27;;;23.27;;
9240;SDS011;53485;49.326;9.738;2022-12-18T08:19:52;66.13;;;23.63;;
9240;SDS011;53485;49.326;9.738;2022-12-18T08:22:20;66.77;;;26.13;;
9240;SDS011;53485;49.326;9.738;2022-12-18T08:24:47;72.63;;;24.23;;
9240;SDS011;53485;49.326;9.738;2022-12-18T08:27:15;68.07;;;27.30;;
9240;SDS011;53485;49.326;9.738;2022-12-18T08:29:42;64.67;;;23.03;;
9240;SDS011;53485;49.326;9.738;2022-12-18T08:32:09;65.00;;;23.67;;
9240;SDS011;53485;49.326;9.738;2022-12-18T08:34:37;75.20;;;25.30;;
9240;SDS011;53485;49.326;9.738;2022-12-18T08:37:04;72.17;;;24.83;;
9240;SDS011;53485;49.326;9.738;2022-12-18T08:39:32;71.80;;;25.13;;
9240;SDS011;53485;49.326;9.738;2022-12-18T08:41:59;72.80;;;26.03;;
9240;SDS011;53485;49.326;9.738;2022-12-18T08:44:32;74.17;;;25.10;;
9240;SDS011;53485;49.326;9.738;2022-12-18T08:47:03;65.00;;;24.40;;
9240;SDS011;53485;49.326;9.738;2022-12-18T08:49:31;76.47;;;25.93;;
9240;SDS011;53485;49.326;9.738;2022-12-18T08:51:57;67.97;;;25.73;;
9240;SDS011;53485;49.326;9.738;2022-12-18T08:54:25;67.47;;;23.80;;
9240;SDS011;53485;49.326;9.738;2022-12-18T08:56:52;67.40;;;26.17;;
9240;SDS011;53485;49.326;9.738;2022-12-18T08:59:19;70.37;;;24.57;;
9240;SDS011;53485;49.326;9.738;2022-12-18T09:01:46;67.50;;;23.17;;
9240;SDS011;53485;49.326;9.738;2022-12-18T09:04:13;66.70;;;24.53;;
9240;SDS011;53485;49.326;9.738;2022-12-18T09:06:40;59.00;;;23.83;;
9240;SDS011;53485;49.326;9.738;2022-12-18T09:09:09;65.80;;;23.50;;
9240;SDS011;53485;49.326;9.738;2022-12-18T09:11:34;66.97;;;26.07;;
9240;SDS011;53485;49.326;9.738;2022-12-18T09:14:02;60.00;;;21.90;;
9240;SDS011;53485;49.326;9.738;2022-12-18T09:16:29;57.57;;;22.53;;
9240;SDS011;53485;49.326;9.738;2022-12-18T09:18:56;60.27;;;22.07;;
9240;SDS011;53485;49.326;9.738;2022-12-18T09:21:23;69.57;;;23.00;;
9240;SDS011;53485;49.326;9.738;2022-12-18T09:23:50;60.27;;;22.30;;
9240;SDS011;53485;49.326;9.738;2022-12-18T09:26:17;65.80;;;23.37;;
9240;SDS011;53485;49.326;9.738;2022-12-18T09:28:44;58.07;;;20.03;;
9240;SDS011;53485;49.326;9.738;2022-12-18T09:31:12;56.97;;;21.53;;
9240;SDS011;53485;49.326;9.738;2022-12-18T09:33:39;53.23;;;20.90;;
9240;SDS011;53485;49.326;9.738;2022-12-18T09:36:06;62.60;;;21.80;;
9240;SDS011;53485;49.326;9.738;2022-12-18T09:38:33;54.10;;;20.87;;
9240;SDS011;53485;49.326;9.738;2022-12-18T09:41:03;54.93;;;21.43;;
9240;SDS011;53485;49.326;9.738;2022-12-18T09:43:44;57.97;;;21.77;;
9240;SDS011;53485;49.326;9.738;2022-12-18T09:46:10;53.27;;;21.07;;
9240;SDS011;53485;49.326;9.738;2022-12-18T09:48:40;54.23;;;19.43;;
9240;SDS011;53485;49.326;9.738;2022-12-18T09:51:11;48.80;;;19.97;;
9240;SDS011;53485;49.326;9.738;2022-12-18T09:53:37;51.93;;;19.70;;
9240;SDS011;53485;49.326;9.738;2022-12-18T09:56:04;51.47;;;19.57;;
9240;SDS011;53485;49.326;9.738;2022-12-18T09:58:34;48.90;;;20.13;;
9240;SDS011;53485;49.326;9.738;2022-12-18T10:01:00;46.67;;;18.60;;
9240;SDS011;53485;49.326;9.738;2022-12-18T10:03:27;43.43;;;19.03;;
9240;SDS011;53485;49.326;9.738;2022-12-18T10:11:33;45.10;;;19.20;;
9240;SDS011;53485;49.326;9.738;2022-12-18T10:14:04;68.50;;;25.57;;
9240;SDS011;53485;49.326;9.738;2022-12-18T10:16:32;67.33;;;25.70;;
9240;SDS011;53485;49.326;9.738;2022-12-18T10:19:09;45.50;;;19.00;;
9240;SDS011;53485;49.326;9.738;2022-12-18T10:21:41;52.67;;;23.37;;
9240;SDS011;53485;49.326;9.738;2022-12-18T10:24:14;47.67;;;20.83;;
9240;SDS011;53485;49.326;9.738;2022-12-18T10:26:55;49.13;;;19.50;;
9240;SDS011;53485;49.326;9.738;2022-12-18T10:29:22;46.73;;;19.17;;
9240;SDS011;53485;49.326;9.738;2022-12-18T10:31:49;46.97;;;19.07;;
9240;SDS011;53485;49.326;9.738;2022-12-18T10:34:16;44.07;;;18.53;;
9240;SDS011;53485;49.326;9.738;2022-12-18T10:36:44;43.57;;;18.87;;
9240;SDS011;53485;49.326;9.738;2022-12-18T10:39:18;51.50;;;18.97;;
9240;SDS011;53485;49.326;9.738;2022-12-18T10:41:43;45.83;;;19.50;;
9240;SDS011;53485;49.326;9.738;2022-12-18T10:44:12;46.30;;;19.23;;
9240;SDS011;53485;49.326;9.738;2022-12-18T10:46:37;45.70;;;18.90;;
9240;SDS011;53485;49.326;9.738;2022-12-18T10:49:04;42.20;;;19.23;;
9240;SDS011;53485;49.326;9.738;2022-12-18T10:51:33;51.30;;;23.43;;
9240;SDS011;53485;49.326;9.738;2022-12-18T10:54:02;49.40;;;21.97;;
9240;SDS011;53485;49.326;9.738;2022-12-18T10:56:33;45.47;;;18.67;;
9240;SDS011;53485;49.326;9.738;2022-12-18T10:59:06;46.17;;;19.80;;
9240;SDS011;53485;49.326;9.738;2022-12-18T11:04:13;50.17;;;20.37;;
9240;SDS011;53485;49.326;9.738;2022-12-18T11:06:51;47.63;;;20.00;;
9240;SDS011;53485;49.326;9.738;2022-12-18T11:09:05;49.40;;;20.17;;
9240;SDS011;53485;49.326;9.738;2022-12-18T11:11:31;44.53;;;19.93;;
9240;SDS011;53485;49.326;9.738;2022-12-18T11:14:02;49.27;;;20.50;;
9240;SDS011;53485;49.326;9.738;2022-12-18T11:16:28;52.63;;;22.43;;
9240;SDS011;53485;49.326;9.738;2022-12-18T11:18:54;43.20;;;19.07;;
9240;SDS011;53485;49.326;9.738;2022-12-18T11:21:21;43.17;;;19.13;;
9240;SDS011;53485;49.326;9.738;2022-12-18T11:23:50;48.07;;;21.53;;
9240;SDS011;53485;49.326;9.738;2022-12-18T11:26:16;49.27;;;20.03;;
9240;SDS011;53485;49.326;9.738;2022-12-18T11:28:47;39.07;;;17.60;;
9240;SDS011;53485;49.326;9.738;2022-12-18T11:33:50;42.70;;;19.47;;
9240;SDS011;53485;49.326;9.738;2022-12-18T11:36:33;41.47;;;17.30;;
9240;SDS011;53485;49.326;9.738;2022-12-18T11:38:59;44.77;;;19.50;;
9240;SDS011;53485;49.326;9.738;2022-12-18T11:41:27;41.03;;;18.37;;
9240;SDS011;53485;49.326;9.738;2022-12-18T11:44:00;44.13;;;18.33;;
9240;SDS011;53485;49.326;9.738;2022-12-18T11:46:30;45.80;;;18.63;;
9240;SDS011;53485;49.326;9.738;2022-12-18T11:48:58;41.73;;;18.23;;
9240;SDS011;53485;49.326;9.738;2022-12-18T11:51:27;42.03;;;18.53;;
9240;SDS011;53485;49.326;9.738;2022-12-18T11:53:52;38.97;;;17.67;;
9240;SDS011;53485;49.326;9.738;2022-12-18T11:56:27;43.23;;;17.37;;
9240;SDS011;53485;49.326;9.738;2022-12-18T11:59:00;42.73;;;18.00;;
9240;SDS011;53485;49.326;9.738;2022-12-18T12:01:37;44.30;;;18.97;;
9240;SDS011;53485;49.326;9.738;2022-12-18T12:04:16;39.67;;;18.63;;
9240;SDS011;53485;49.326;9.738;2022-12-18T12:07:03;47.67;;;19.63;;
9240;SDS011;53485;49.326;9.738;2022-12-18T12:09:31;43.03;;;18.70;;
9240;SDS011;53485;49.326;9.738;2022-12-18T12:12:16;43.37;;;19.03;;
9240;SDS011;53485;49.326;9.738;2022-12-18T12:15:03;40.83;;;17.67;;
9240;SDS011;53485;49.326;9.738;2022-12-18T12:17:34;49.73;;;20.20;;
9240;SDS011;53485;49.326;9.738;2022-12-18T12:20:03;46.70;;;19.40;;
9240;SDS011;53485;49.326;9.738;2022-12-18T12:22:38;44.20;;;19.53;;
9240;SDS011;53485;49.326;9.738;2022-12-18T12:25:37;46.43;;;19.33;;
9240;SDS011;53485;49.326;9.738;2022-12-18T12:28:27;45.13;;;19.53;;
9240;SDS011;53485;49.326;9.738;2022-12-18T12:30:35;48.50;;;20.00;;
9240;SDS011;53485;49.326;9.738;2022-12-18T12:33:05;46.67;;;19.37;;
9240;SDS011;53485;49.326;9.738;2022-12-18T12:35:32;40.00;;;19.50;;
9240;SDS011;53485;49.326;9.738;2022-12-18T12:38:13;43.97;;;20.47;;
9240;SDS011;53485;49.326;9.738;2022-12-18T12:40:47;41.70;;;19.93;;
9240;SDS011;53485;49.326;9.738;2022-12-18T12:43:35;42.03;;;20.33;;
9240;SDS011;53485;49.326;9.738;2022-12-18T12:46:05;43.60;;;19.53;;
9240;SDS011;53485;49.326;9.738;2022-12-18T12:48:48;41.43;;;19.27;;
9240;SDS011;53485;49.326;9.738;2022-12-18T12:51:17;51.30;;;23.30;;
9240;SDS011;53485;49.326;9.738;2022-12-18T12:53:46;46.47;;;21.93;;
9240;SDS011;53485;49.326;9.738;2022-12-18T12:56:13;42.47;;;19.60;;
9240;SDS011;53485;49.326;9.738;2022-12-18T12:59:13;48.77;;;21.13;;
9240;SDS011;53485;49.326;9.738;2022-12-18T13:01:40;47.63;;;21.13;;
9240;SDS011;53485;49.326;9.738;2022-12-18T13:04:14;46.07;;;19.70;;
9240;SDS011;53485;49.326;9.738;2022-12-18T13:06:45;45.50;;;19.60;;
9240;SDS011;53485;49.326;9.738;2022-12-18T13:09:13;47.17;;;19.67;;
9240;SDS011;53485;49.326;9.738;2022-12-18T13:11:41;48.60;;;21.63;;
9240;SDS011;53485;49.326;9.738;2022-12-18T13:14:44;41.97;;;19.67;;
9240;SDS011;53485;49.326;9.738;2022-12-18T13:19:34;46.77;;;21.57;;
9240;SDS011;53485;49.326;9.738;2022-12-18T13:22:01;48.43;;;21.17;;
9240;SDS011;53485;49.326;9.738;2022-12-18T13:24:30;46.97;;;20.50;;
9240;SDS011;53485;49.326;9.738;2022-12-18T13:26:55;46.10;;;19.60;;
9240;SDS011;53485;49.326;9.738;2022-12-18T13:32:01;46.67;;;19.83;;
9240;SDS011;53485;49.326;9.738;2022-12-18T13:34:29;48.17;;;20.00;;
9240;SDS011;53485;49.326;9.738;2022-12-18T13:36:57;44.87;;;20.33;;
9240;SDS011;53485;49.326;9.738;2022-12-18T13:39:23;49.80;;;21.50;;
9240;SDS011;53485;49.326;9.738;2022-12-18T13:41:52;44.67;;;20.00;;
9240;SDS011;53485;49.326;9.738;2022-12-18T13:46:59;46.97;;;20.13;;
9240;SDS011;53485;49.326;9.738;2022-12-18T13:52:03;49.70;;;21.03;;
9240;SDS011;53485;49.326;9.738;2022-12-18T13:54:34;47.30;;;21.17;;
9240;SDS011;53485;49.326;9.738;2022-12-18T13:56:59;45.97;;;21.00;;
9240;SDS011;53485;49.326;9.738;2022-12-18T14:02:11;50.43;;;21.07;;
9240;SDS011;53485;49.326;9.738;2022-12-18T14:04:28;44.53;;;19.73;;
9240;SDS011;53485;49.326;9.738;2022-12-18T14:06:57;50.03;;;20.00;;
9240;SDS011;53485;49.326;9.738;2022-12-18T14:09:40;49.90;;;21.07;;
9240;SDS011;53485;49.326;9.738;2022-12-18T14:12:12;50.03;;;19.77;;
9240;SDS011;53485;49.326;9.738;2022-12-18T14:14:40;46.43;;;20.37;;
9240;SDS011;53485;49.326;9.738;2022-12-18T14:17:08;50.90;;;20.43;;
9240;SDS011;53485;49.326;9.738;2022-12-18T14:19:34;48.23;;;20.53;;
9240;SDS011;53485;49.326;9.738;2022-12-18T14:22:01;49.20;;;20.03;;
9240;SDS011;53485;49.326;9.738;2022-12-18T14:24:28;51.87;;;20.47;;
9240;SDS011;53485;49.326;9.738;2022-12-18T14:26:56;50.33;;;20.90;;
9240;SDS011;53485;49.326;9.738;2022-12-18T14:29:24;44.03;;;19.30;;
9240;SDS011;53485;49.326;9.738;2022-12-18T14:34:27;52.80;;;22.00;;
9240;SDS011;53485;49.326;9.738;2022-12-18T14:36:54;47.57;;;20.50;;
9240;SDS011;53485;49.326;9.738;2022-12-18T14:39:21;46.10;;;20.17;;
9240;SDS011;53485;49.326;9.738;2022-12-18T14:41:48;50.20;;;21.90;;
9240;SDS011;53485;49.326;9.738;2022-12-18T14:44:15;47.47;;;21.07;;
9240;SDS011;53485;49.326;9.738;2022-12-18T14:46:42;51.70;;;21.80;;
9240;SDS011;53485;49.326;9.738;2022-12-18T14:49:18;48.77;;;20.87;;
9240;SDS011;53485;49.326;9.738;2022-12-18T14:51:47;48.20;;;20.63;;
9240;SDS011;53485;49.326;9.738;2022-12-18T14:54:15;55.10;;;25.60;;
9240;SDS011;53485;49.326;9.738;2022-12-18T14:56:44;51.67;;;21.30;;
9240;SDS011;53485;49.326;9.738;2022-12-18T14:59:13;53.67;;;21.93;;
9240;SDS011;53485;49.326;9.738;2022-12-18T15:01:44;49.07;;;22.20;;
9240;SDS011;53485;49.326;9.738;2022-12-18T15:04:25;50.50;;;21.80;;
9240;SDS011;53485;49.326;9.738;2022-12-18T15:09:30;53.80;;;22.10;;
9240;SDS011;53485;49.326;9.738;2022-12-18T15:11:58;66.87;;;29.27;;
9240;SDS011;53485;49.326;9.738;2022-12-18T15:14:30;59.40;;;24.87;;
9240;SDS011;53485;49.326;9.738;2022-12-18T15:16:56;65.10;;;27.30;;
9240;SDS011;53485;49.326;9.738;2022-12-18T15:19:25;66.93;;;25.80;;